Gran Cañón, AZ

9:59 PM MST en Mayo 03, 2015 (GMT -0700)
KAZGRAND3 | | Change Station
CLOSE
Current Station
Estación meteorológica personal
Location: Grand Canyon, AZ
Altura: 6991 ft
Estaciones meteorológicas cercanas

Alt 6991 ft 36.05 °N, 112.12 °W | Updated 12 seconds ago

Muy nublado
Muy nublado
41.0 ° F
Sensación térmica 41 ° F
N
0.0
Viento Variable Viento desde Norte
Gusts 0.0 mph

Hoy
Alta -- | Baja -- ° F
--% Posibilidad de precipitaciones
Ayer
Alta -- | Baja -- ° F
Precip. -- pul
5:33 AM 7:17 PM
Luna llena, 100% visible
Presión 29.87 pul
Visibilidad 10.0 Millas
Nubes Despejado
Vientos helados 41 ° F
Punto de rocío 36 ° F
Humedad 81%
Precipitaciones 0.07 pul
Espesor de la nieve No disponible.
UV 0 de una escala de 12
Polen 6.80 de una escala de 12
Calidad del aire No disponible.
Flu Activity Local Activity
METAR KGCN 040454Z 05003KT 10SM CLR 07/04 A3006 RMK AO2 SLP114 T00670039

More Conditions Fewer Conditions

Presión 29.87 pul
Visibilidad 10.0 Millas
Nubes Despejado
Vientos helados 41 ° F
Punto de rocío 36 ° F
Humedad 81%
Precipitaciones 0.07 pul
Espesor de la nieve No disponible.
UV 0 de una escala de 12
Polen 6.80 de una escala de 12
Calidad del aire No disponible.
Flu Activity Local Activity
METAR KGCN 040454Z 05003KT 10SM CLR 07/04 A3006 RMK AO2 SLP114 T00670039

More Conditions Fewer Conditions

Nepal has a long way to go to dig out and rebuild from a devastating earthquake. We have teamed up with several charities and organizations to make contributing to the relief effort as easy as possible.
How you can help: Portlight Strategies | Red Cross

10-Day Weather Forecast

Almanac

Astronomía

May. 03, 2015 Salida Puesta
Hora real
Crepúsculo civil
Crepúsculo náutico
Crepúsculo astronómico
Luna
Horas de luz
Horas de luz
Tomorrow will be .
, % of the Moon is Illuminated

Extremos de hoy

Máximos del estado Bajos del estado

Community

WunderPhotos

Upload Photos

1,818,524 ¡fotos cargadas!

WunderBlogs® & News

Nearby

Calidad del aire

  Calidad del aire Índice AQ Contaminante
Not available.

Grosos de nieve

Estación Profundido Altura

Actividad de terremotos

Ciudad Distance Mag. Tiempo y dato
Magnitud mínima muestra es 2,5.

Temperaturas de aguas costeras

Lugar Temperatura

Stations

Estaciones meteorológicas cercanas

Ubicación de la estación Temp. Vientos helados Punto de rocío Humedad Viento Precip. Alt Actualizado Tipo